Time;durP1;ratioP1;P1;durP2;ratioP2;P2;SDS_P1;SDS_P2;PMS_P1;PMS_P2;Temp;Humidity;BMP_temperature;BMP_pressure;BME280_temperature;BME280_humidity;BME280_pressure;Samples;Min_cycle;Max_cycle;Signal;HPM_P1;HPM_P2
2021/09/13 00:01:35;;;;;;;7.60;6.68;;;17.60;91.10;;;;;;4932391;28;20381;-75
2021/09/13 00:04:01;;;;;;;9.20;6.18;;;17.60;91.10;;;;;;4930565;29;20058;-75
2021/09/13 00:06:27;;;;;;;9.00;6.18;;;17.60;91.00;;;;;;4929036;28;20032;-76
2021/09/13 00:08:52;;;;;;;9.20;6.53;;;17.50;91.00;;;;;;4947080;28;20039;-75
2021/09/13 00:11:18;;;;;;;7.03;6.32;;;17.50;90.90;;;;;;4930739;28;20034;-75
2021/09/13 00:13:44;;;;;;;8.88;6.18;;;17.40;90.90;;;;;;4933369;29;20031;-75
2021/09/13 00:16:10;;;;;;;9.88;7.05;;;17.40;91.00;;;;;;4931182;29;20051;-75
2021/09/13 00:18:37;;;;;;;7.68;6.88;;;17.30;91.10;;;;;;4945095;28;20082;-76
2021/09/13 00:21:03;;;;;;;7.80;6.80;;;17.30;91.10;;;;;;4930648;28;20035;-76
2021/09/13 00:23:30;;;;;;;8.55;7.00;;;17.20;91.10;;;;;;4933038;29;20107;-76
2021/09/13 00:25:56;;;;;;;9.10;6.50;;;17.20;91.10;;;;;;4931987;29;20039;-75
2021/09/13 00:28:23;;;;;;;9.25;7.18;;;17.20;91.20;;;;;;4931474;29;20082;-76
2021/09/13 00:30:49;;;;;;;9.68;7.68;;;17.10;91.20;;;;;;4947874;28;20039;-75
2021/09/13 00:33:15;;;;;;;9.52;7.85;;;17.10;91.30;;;;;;4936882;29;20050;-75
2021/09/13 00:35:41;;;;;;;8.55;6.65;;;17.10;91.30;;;;;;4948882;28;20496;-75
2021/09/13 00:38:07;;;;;;;7.70;6.43;;;17.10;91.30;;;;;;4932644;28;20433;-75
2021/09/13 00:40:35;;;;;;;7.78;6.95;;;17.10;91.40;;;;;;4936499;29;20094;-75
2021/09/13 00:43:03;;;;;;;10.27;6.70;;;17.10;91.40;;;;;;4949210;28;20031;-75
2021/09/13 00:45:30;;;;;;;7.50;6.28;;;17.00;91.40;;;;;;4935348;29;20035;-75
2021/09/13 00:47:55;;;;;;;11.48;7.70;;;17.00;91.40;;;;;;4948807;28;20114;-75
2021/09/13 00:50:21;;;;;;;8.73;7.40;;;17.00;91.50;;;;;;4936330;29;20032;-75
2021/09/13 00:52:51;;;;;;;7.63;6.82;;;17.00;91.50;;;;;;4934184;29;20123;-75
2021/09/13 00:55:18;;;;;;;8.90;7.18;;;17.00;91.60;;;;;;4947930;28;20043;-76
2021/09/13 00:57:45;;;;;;;9.98;7.20;;;17.00;91.40;;;;;;4934209;29;20031;-76
2021/09/13 01:00:11;;;;;;;8.55;6.63;;;16.90;91.30;;;;;;4947994;28;20035;-75
2021/09/13 01:02:37;;;;;;;12.35;8.10;;;16.90;91.20;;;;;;4934354;28;20059;-75
2021/09/13 01:05:03;;;;;;;8.18;6.93;;;16.90;91.10;;;;;;4933972;29;20122;-76
2021/09/13 01:07:30;;;;;;;9.32;7.03;;;16.90;91.20;;;;;;4946317;28;20031;-76
2021/09/13 01:09:58;;;;;;;8.68;7.18;;;16.80;91.20;;;;;;4937118;29;20133;-76
2021/09/13 01:12:24;;;;;;;9.63;6.97;;;16.80;91.20;;;;;;4934644;29;20591;-75
2021/09/13 01:14:50;;;;;;;8.95;7.18;;;16.80;91.20;;;;;;4933683;29;20035;-75
2021/09/13 01:17:16;;;;;;;10.75;7.15;;;16.80;91.20;;;;;;4949528;28;20046;-76
2021/09/13 01:19:41;;;;;;;9.60;7.35;;;16.80;91.10;;;;;;4933472;29;20042;-76
2021/09/13 01:22:11;;;;;;;8.90;6.90;;;16.70;91.00;;;;;;4950543;28;20036;-76
2021/09/13 01:24:45;;;;;;;10.02;8.00;;;16.70;91.10;;;;;;4949520;28;20035;-76
2021/09/13 01:27:11;;;;;;;10.02;8.18;;;16.70;91.10;;;;;;4932145;29;20149;-75
2021/09/13 01:29:39;;;;;;;7.70;6.38;;;16.70;91.20;;;;;;4935267;29;20042;-75
2021/09/13 01:32:07;;;;;;;11.98;7.50;;;16.60;91.20;;;;;;4933772;29;20028;-75
2021/09/13 01:34:46;;;;;;;9.35;7.63;;;16.60;91.30;;;;;;4934922;29;20069;-76
2021/09/13 01:37:12;;;;;;;12.77;7.75;;;16.60;91.30;;;;;;4932815;28;20067;-75
2021/09/13 01:39:38;;;;;;;8.57;7.45;;;16.60;91.30;;;;;;4949545;28;20047;-75
2021/09/13 01:42:04;;;;;;;10.60;7.90;;;16.60;91.30;;;;;;4949634;28;20036;-75
2021/09/13 01:44:31;;;;;;;11.38;7.95;;;16.50;91.30;;;;;;4947615;28;20039;-75
2021/09/13 01:46:56;;;;;;;8.95;7.40;;;16.50;91.40;;;;;;4947961;28;20105;-75
2021/09/13 01:49:23;;;;;;;10.80;7.40;;;16.50;91.50;;;;;;4932952;29;20503;-75
2021/09/13 01:51:52;;;;;;;10.48;7.65;;;16.50;91.30;;;;;;4945976;28;20027;-75
2021/09/13 01:54:18;;;;;;;11.88;7.80;;;16.50;91.30;;;;;;4935304;29;20039;-75
2021/09/13 01:56:45;;;;;;;9.88;7.78;;;16.50;91.30;;;;;;4944149;28;20732;-75
2021/09/13 01:59:18;;;;;;;10.43;8.32;;;16.50;91.30;;;;;;4948431;28;20050;-75
2021/09/13 02:01:44;;;;;;;10.95;7.80;;;16.50;91.30;;;;;;4931443;29;20039;-76
2021/09/13 02:04:10;;;;;;;9.95;7.75;;;16.50;91.30;;;;;;4949462;28;20045;-75
2021/09/13 02:06:37;;;;;;;8.52;7.40;;;16.40;91.40;;;;;;4948397;28;20090;-75
2021/09/13 02:09:03;;;;;;;10.13;8.13;;;16.40;91.50;;;;;;4949150;28;20059;-75
2021/09/13 02:11:29;;;;;;;9.93;8.07;;;16.40;91.30;;;;;;4931726;29;20530;-76
2021/09/13 02:13:54;;;;;;;8.32;7.10;;;16.40;91.10;;;;;;4949190;28;20082;-75
2021/09/13 02:16:20;;;;;;;10.23;8.38;;;16.40;91.20;;;;;;4943913;28;20054;-75
2021/09/13 02:18:46;;;;;;;9.25;8.25;;;16.30;91.00;;;;;;4948830;28;20063;-76
2021/09/13 02:21:13;;;;;;;12.63;8.32;;;16.30;91.10;;;;;;4946545;28;20026;-76
2021/09/13 02:23:41;;;;;;;10.93;8.02;;;16.30;91.10;;;;;;4946218;28;20094;-76
2021/09/13 02:26:10;;;;;;;10.50;8.27;;;16.30;91.10;;;;;;4929773;29;20166;-75
2021/09/13 02:28:38;;;;;;;9.73;7.70;;;16.20;91.10;;;;;;4947403;28;20122;-75
2021/09/13 02:31:04;;;;;;;9.90;8.10;;;16.30;91.30;;;;;;4947555;28;20032;-76
2021/09/13 02:33:30;;;;;;;9.93;8.27;;;16.20;91.30;;;;;;4945460;28;20496;-75
2021/09/13 02:35:55;;;;;;;9.23;7.95;;;16.20;91.30;;;;;;4931455;29;20031;-76
2021/09/13 02:38:21;;;;;;;10.80;8.82;;;16.20;91.30;;;;;;4932082;29;20553;-76
2021/09/13 02:40:47;;;;;;;10.15;8.00;;;16.20;91.20;;;;;;4945412;28;20034;-75
2021/09/13 02:43:13;;;;;;;8.73;7.78;;;16.20;91.20;;;;;;4945878;28;20154;-75
2021/09/13 02:45:39;;;;;;;11.13;8.50;;;16.10;91.20;;;;;;4946805;28;20039;-76
2021/09/13 02:48:06;;;;;;;11.10;7.85;;;16.10;91.20;;;;;;4945885;28;20031;-75
2021/09/13 02:50:32;;;;;;;11.85;8.27;;;16.10;91.20;;;;;;4949881;28;20035;-75
2021/09/13 02:52:58;;;;;;;10.57;8.55;;;16.10;91.20;;;;;;4931645;29;20729;-75
2021/09/13 02:55:25;;;;;;;13.27;8.82;;;16.10;91.20;;;;;;4947399;28;20043;-76
2021/09/13 02:57:51;;;;;;;11.95;8.68;;;16.10;91.20;;;;;;4935030;28;20047;-76
2021/09/13 03:00:17;;;;;;;11.55;9.05;;;16.10;91.20;;;;;;4931573;29;20086;-75
2021/09/13 03:02:51;;;;;;;12.57;8.57;;;16.00;91.30;;;;;;4948065;28;20039;-75
2021/09/13 03:05:17;;;;;;;12.18;9.18;;;16.00;91.30;;;;;;4948017;28;20089;-76
2021/09/13 03:07:43;;;;;;;11.48;8.52;;;16.00;91.30;;;;;;4933155;29;20127;-75
2021/09/13 03:10:09;;;;;;;9.25;8.15;;;16.00;91.30;;;;;;4947697;28;20860;-76
2021/09/13 03:12:35;;;;;;;9.25;8.05;;;15.90;91.30;;;;;;4946023;28;20032;-76
2021/09/13 03:15:03;;;;;;;14.02;8.77;;;16.00;91.30;;;;;;4937203;29;20063;-75
2021/09/13 03:17:29;;;;;;;11.65;8.98;;;16.00;91.30;;;;;;4948353;28;20036;-76
2021/09/13 03:19:57;;;;;;;10.93;8.50;;;16.00;91.40;;;;;;4946770;28;20084;-75
2021/09/13 03:22:23;;;;;;;9.48;8.40;;;15.90;91.30;;;;;;4947459;28;20044;-76
2021/09/13 03:24:49;;;;;;;10.38;8.98;;;15.90;91.20;;;;;;4929408;29;20027;-75
2021/09/13 03:27:14;;;;;;;12.00;8.73;;;15.90;91.20;;;;;;4946676;28;20031;-75
2021/09/13 03:29:40;;;;;;;10.10;8.65;;;15.90;91.20;;;;;;4930813;29;20047;-75
2021/09/13 03:32:06;;;;;;;12.15;9.75;;;15.90;91.20;;;;;;4946434;28;20047;-75
2021/09/13 03:34:32;;;;;;;10.52;9.02;;;15.80;91.20;;;;;;4933395;29;20040;-75
2021/09/13 03:36:59;;;;;;;11.43;8.88;;;15.90;91.40;;;;;;4929481;29;20139;-75
2021/09/13 03:39:26;;;;;;;11.57;9.23;;;15.80;91.40;;;;;;4960592;28;20027;-76
2021/09/13 03:41:52;;;;;;;9.63;8.63;;;15.80;91.40;;;;;;4925313;28;20035;-75
2021/09/13 03:44:18;;;;;;;11.77;9.18;;;15.80;91.40;;;;;;4929494;28;20063;-75
2021/09/13 03:46:43;;;;;;;10.52;9.32;;;15.80;91.40;;;;;;4943791;28;20023;-76
2021/09/13 03:49:16;;;;;;;10.15;9.02;;;15.80;91.40;;;;;;4955613;28;20031;-76
2021/09/13 03:51:45;;;;;;;11.57;8.70;;;15.80;91.40;;;;;;4950555;28;20027;-76
2021/09/13 03:54:11;;;;;;;11.43;8.68;;;15.80;91.50;;;;;;4950157;28;20486;-75
2021/09/13 03:56:37;;;;;;;11.73;8.93;;;15.90;91.60;;;;;;4941065;28;20032;-75
2021/09/13 03:59:03;;;;;;;14.60;9.43;;;15.90;91.60;;;;;;4959068;28;20041;-75
2021/09/13 04:01:29;;;;;;;11.30;9.15;;;16.00;91.60;;;;;;4952853;28;20031;-75
2021/09/13 04:04:00;;;;;;;10.38;8.88;;;16.00;91.50;;;;;;4955804;28;20031;-75
2021/09/13 04:06:37;;;;;;;13.15;8.52;;;16.00;91.50;;;;;;4939431;28;20078;-75
2021/09/13 04:12:08;;;;;;;11.57;8.82;;;16.10;91.40;;;;;;4937214;28;20083;-75
2021/09/13 04:14:48;;;;;;;10.43;8.38;;;16.20;91.30;;;;;;4938834;28;20057;-76
2021/09/13 04:17:33;;;;;;;9.82;7.43;;;16.20;91.10;;;;;;4950774;28;20875;-75
2021/09/13 04:20:17;;;;;;;10.45;8.10;;;16.20;91.10;;;;;;4946659;28;20090;-75
2021/09/13 04:23:14;;;;;;;12.65;7.47;;;16.10;91.00;;;;;;4935761;28;20083;-75
2021/09/13 04:25:57;;;;;;;10.48;8.30;;;16.10;90.80;;;;;;4955168;28;20043;-76
2021/09/13 04:28:41;;;;;;;10.32;8.30;;;16.00;90.60;;;;;;4937973;28;20042;-76
2021/09/13 04:31:18;;;;;;;9.00;7.57;;;15.90;90.70;;;;;;4949324;28;20064;-76
2021/09/13 04:34:10;;;;;;;9.82;8.32;;;15.90;90.70;;;;;;4937528;28;20063;-75
2021/09/13 04:36:58;;;;;;;10.38;8.27;;;15.90;90.70;;;;;;4937782;28;20675;-75
2021/09/13 04:39:58;;;;;;;8.52;7.60;;;15.90;90.70;;;;;;4943110;28;20152;-76
2021/09/13 04:42:43;;;;;;;10.57;8.02;;;15.90;90.80;;;;;;4936228;28;20094;-76
2021/09/13 04:45:27;;;;;;;9.18;7.80;;;16.00;90.90;;;;;;4940092;28;20524;-76
2021/09/13 04:48:15;;;;;;;9.75;7.38;;;15.90;90.90;;;;;;4945055;28;20039;-76
2021/09/13 04:50:54;;;;;;;8.38;7.47;;;15.90;90.90;;;;;;4957638;28;20061;-76
2021/09/13 04:53:48;;;;;;;10.07;7.60;;;15.90;90.90;;;;;;4950008;28;20036;-76
2021/09/13 04:56:15;;;;;;;9.10;7.63;;;15.90;90.90;;;;;;4936621;28;20118;-76
2021/09/13 04:58:42;;;;;;;10.55;7.90;;;15.90;90.90;;;;;;4938316;28;20043;-76
2021/09/13 05:01:08;;;;;;;10.38;7.75;;;15.90;91.00;;;;;;4928412;29;20038;-76
2021/09/13 05:03:36;;;;;;;9.18;8.20;;;15.90;90.90;;;;;;4971001;28;20066;-76
2021/09/13 05:06:03;;;;;;;8.30;7.50;;;16.00;91.00;;;;;;4945239;28;20114;-76
2021/09/13 05:08:29;;;;;;;8.55;7.68;;;16.00;90.90;;;;;;4937518;28;20838;-76
2021/09/13 05:11:00;;;;;;;8.82;7.20;;;16.00;90.90;;;;;;4947221;28;20078;-76
2021/09/13 05:13:27;;;;;;;11.15;7.85;;;16.00;90.90;;;;;;4940911;28;20043;-76
2021/09/13 05:15:52;;;;;;;9.15;7.32;;;16.00;90.80;;;;;;4939464;28;20074;-75
2021/09/13 05:18:19;;;;;;;10.07;7.82;;;16.00;90.70;;;;;;4935321;28;20161;-72
2021/09/13 05:20:45;;;;;;;8.15;7.03;;;16.00;90.60;;;;;;4931061;28;20031;-75
2021/09/13 05:23:12;;;;;;;12.05;8.45;;;15.90;91.90;;;;;;4943956;28;20039;-75
2021/09/13 05:25:38;;;;;;;12.10;7.60;;;16.00;91.40;;;;;;4945486;28;20714;-75
2021/09/13 05:28:05;;;;;;;11.82;7.65;;;16.10;91.00;;;;;;4933170;28;20039;-75
2021/09/13 05:30:31;;;;;;;7.75;6.88;;;16.10;90.70;;;;;;4947343;28;20031;-76
2021/09/13 05:32:56;;;;;;;8.93;7.03;;;16.10;90.40;;;;;;4944451;28;20818;-76
2021/09/13 05:35:22;;;;;;;8.02;6.93;;;16.10;90.40;;;;;;4933582;28;20043;-73
2021/09/13 05:37:48;;;;;;;9.48;7.35;;;16.10;91.70;;;;;;4937777;29;20057;-79
2021/09/13 05:40:14;;;;;;;8.98;7.35;;;16.20;90.70;;;;;;4933551;29;20156;-79
2021/09/13 05:42:40;;;;;;;11.82;6.97;;;16.30;90.20;;;;;;4944538;28;20036;-78
2021/09/13 05:45:11;;;;;;;11.30;7.60;;;16.20;89.90;;;;;;4934513;29;20043;-75
2021/09/13 05:47:41;;;;;;;8.52;7.63;;;16.20;90.00;;;;;;4930334;29;20035;-78
2021/09/13 05:50:08;;;;;;;9.60;7.88;;;16.10;90.10;;;;;;4952273;28;20042;-77
2021/09/13 05:52:34;;;;;;;10.02;7.25;;;16.10;90.30;;;;;;4937040;29;20027;-76
2021/09/13 05:55:01;;;;;;;12.80;8.40;;;16.10;90.50;;;;;;4955791;28;20036;-69
2021/09/13 05:57:27;;;;;;;9.45;7.57;;;16.00;90.70;;;;;;4966079;28;20376;-74
2021/09/13 05:59:53;;;;;;;11.88;8.55;;;16.00;90.90;;;;;;4939989;28;20411;-76
2021/09/13 06:02:22;;;;;;;8.77;7.82;;;16.00;91.00;;;;;;4952498;28;20036;-77
2021/09/13 06:04:59;;;;;;;8.98;7.63;;;16.00;91.10;;;;;;4935972;28;20031;-77
2021/09/13 06:07:25;;;;;;;10.73;8.13;;;16.10;91.30;;;;;;4943731;28;20034;-76
2021/09/13 06:09:51;;;;;;;11.80;8.88;;;16.10;91.40;;;;;;4947178;28;20043;-79
2021/09/13 06:12:17;;;;;;;11.25;8.13;;;16.10;91.60;;;;;;4942318;28;20042;-77
2021/09/13 06:14:55;;;;;;;11.98;8.93;;;16.20;91.60;;;;;;4924684;29;20824;-78
2021/09/13 06:17:23;;;;;;;10.00;8.45;;;16.20;91.60;;;;;;4945605;28;20039;-77
2021/09/13 06:19:49;;;;;;;12.18;8.65;;;16.30;91.60;;;;;;4927656;29;20067;-78
2021/09/13 06:22:17;;;;;;;10.85;8.00;;;16.30;91.70;;;;;;4929795;28;20381;-74
2021/09/13 06:24:43;;;;;;;11.40;8.35;;;16.30;91.70;;;;;;4944745;28;20046;-74
2021/09/13 06:27:10;;;;;;;12.23;8.38;;;16.40;91.80;;;;;;4960165;28;20032;-74
2021/09/13 06:29:36;;;;;;;9.50;8.45;;;16.40;92.00;;;;;;4941145;28;20034;-74
2021/09/13 06:32:02;;;;;;;11.00;8.25;;;16.50;92.00;;;;;;4951588;28;20739;-74
2021/09/13 06:34:30;;;;;;;10.80;8.23;;;16.50;92.00;;;;;;4944394;28;20062;-74
2021/09/13 06:36:56;;;;;;;11.05;9.13;;;16.60;92.10;;;;;;4933602;28;20751;-76
2021/09/13 06:39:22;;;;;;;11.57;9.10;;;16.70;92.10;;;;;;4949744;28;20042;-71
2021/09/13 06:41:48;;;;;;;10.30;8.95;;;16.70;92.00;;;;;;4945261;28;20023;-75
2021/09/13 06:44:25;;;;;;;12.55;9.57;;;16.80;91.90;;;;;;4933393;29;20034;-75
2021/09/13 06:47:10;;;;;;;10.50;8.65;;;16.90;91.70;;;;;;4933771;28;20028;-76
2021/09/13 06:49:37;;;;;;;9.65;8.32;;;17.00;91.40;;;;;;4936535;29;20130;-76
2021/09/13 06:52:04;;;;;;;11.07;8.88;;;17.10;91.30;;;;;;4926871;28;20031;-77
2021/09/13 06:54:30;;;;;;;11.10;9.20;;;17.20;91.10;;;;;;4955887;28;20042;-77
2021/09/13 06:56:57;;;;;;;10.20;8.10;;;17.30;90.90;;;;;;4940169;28;20039;-78
2021/09/13 06:59:24;;;;;;;11.43;7.53;;;17.40;90.70;;;;;;4949233;28;20107;-78
2021/09/13 07:01:50;;;;;;;11.07;7.55;;;17.50;90.50;;;;;;4937844;29;20035;-78
2021/09/13 07:04:16;;;;;;;9.80;8.07;;;17.60;90.40;;;;;;4952389;28;20035;-78
2021/09/13 07:06:41;;;;;;;11.93;8.40;;;17.60;90.10;;;;;;4944506;28;20526;-78
2021/09/13 07:09:07;;;;;;;10.63;7.45;;;17.70;90.00;;;;;;4951502;28;20745;-78
2021/09/13 07:11:33;;;;;;;17.75;8.05;;;17.80;89.70;;;;;;4947838;28;20031;-78
2021/09/13 07:14:00;;;;;;;10.02;7.45;;;17.90;88.90;;;;;;4965644;28;20607;-78
2021/09/13 07:16:26;;;;;;;11.80;7.22;;;18.00;88.60;;;;;;4952868;28;20084;-76
2021/09/13 07:18:52;;;;;;;8.18;6.30;;;18.00;88.30;;;;;;4933091;28;20027;-70
2021/09/13 07:21:19;;;;;;;10.40;6.40;;;18.10;87.70;;;;;;4934194;28;20564;-75
2021/09/13 07:23:44;;;;;;;10.82;6.47;;;18.10;87.30;;;;;;4927513;28;20091;-78
2021/09/13 07:26:10;;;;;;;8.80;6.07;;;18.20;87.10;;;;;;4931140;29;20047;-79
2021/09/13 07:28:36;;;;;;;8.80;6.05;;;18.20;86.80;;;;;;4927044;29;20039;-79
2021/09/13 07:31:02;;;;;;;12.27;6.88;;;18.20;86.90;;;;;;4935307;28;20036;-79
2021/09/13 07:33:27;;;;;;;12.52;7.28;;;18.30;87.10;;;;;;4934849;29;20042;-80
2021/09/13 07:35:53;;;;;;;8.32;6.45;;;18.30;87.10;;;;;;4934642;28;20400;-79
2021/09/13 07:38:19;;;;;;;10.40;6.05;;;18.40;86.20;;;;;;4938889;28;20149;-75
2021/09/13 07:40:45;;;;;;;11.23;6.15;;;18.40;86.50;;;;;;4934373;28;20712;-71
2021/09/13 07:43:11;;;;;;;6.78;5.35;;;18.50;86.00;;;;;;4937645;29;20031;-75
2021/09/13 07:45:37;;;;;;;8.82;6.20;;;18.60;85.70;;;;;;4939331;29;20078;-76
2021/09/13 07:48:04;;;;;;;7.47;5.65;;;18.70;85.40;;;;;;4956179;28;20036;-77
2021/09/13 07:50:30;;;;;;;8.55;6.40;;;18.80;84.90;;;;;;4961411;28;20146;-75
2021/09/13 07:52:55;;;;;;;7.43;5.35;;;18.90;84.40;;;;;;4953390;28;20456;-74
2021/09/13 07:55:21;;;;;;;8.02;5.28;;;19.10;83.20;;;;;;4940458;28;20047;-74
2021/09/13 07:57:47;;;;;;;7.82;4.93;;;19.30;82.80;;;;;;4931256;29;20091;-74
2021/09/13 08:00:14;;;;;;;5.90;4.32;;;19.50;81.00;;;;;;4951732;28;20046;-75
2021/09/13 08:02:40;;;;;;;5.35;4.70;;;19.50;81.20;;;;;;4946296;28;20593;-76
2021/09/13 08:05:06;;;;;;;8.00;4.88;;;19.60;80.20;;;;;;4937263;28;20038;-74
2021/09/13 08:07:32;;;;;;;10.88;4.50;;;19.60;81.10;;;;;;4930523;28;20099;-74
2021/09/13 08:09:58;;;;;;;7.70;4.55;;;19.60;80.70;;;;;;4946749;28;20539;-73
2021/09/13 08:12:24;;;;;;;8.93;3.97;;;19.60;80.10;;;;;;4938383;28;20027;-76
2021/09/13 08:14:51;;;;;;;8.80;4.18;;;19.60;80.20;;;;;;4939387;28;20483;-76
2021/09/13 08:17:17;;;;;;;4.72;3.63;;;19.70;80.00;;;;;;4946079;28;20038;-76
2021/09/13 08:19:44;;;;;;;4.68;3.80;;;19.80;80.60;;;;;;4940771;28;20094;-77
2021/09/13 08:22:12;;;;;;;5.30;4.20;;;19.80;80.80;;;;;;4938425;28;20046;-76
2021/09/13 08:24:39;;;;;;;6.20;3.42;;;19.90;81.00;;;;;;4940297;29;20082;-77
2021/09/13 08:27:13;;;;;;;6.30;4.20;;;20.00;79.90;;;;;;4933929;28;20032;-74
2021/09/13 08:29:38;;;;;;;4.22;3.20;;;20.00;79.20;;;;;;4928775;29;20046;-75
2021/09/13 08:32:04;;;;;;;4.72;3.17;;;20.00;79.20;;;;;;4934154;29;20066;-76
2021/09/13 08:34:30;;;;;;;4.63;4.15;;;20.00;79.60;;;;;;4951746;28;20046;-76
2021/09/13 08:36:56;;;;;;;5.03;3.63;;;20.10;80.40;;;;;;4941677;28;20059;-75
2021/09/13 08:39:22;;;;;;;7.18;4.13;;;20.00;79.60;;;;;;4939921;29;20045;-75
2021/09/13 08:41:48;;;;;;;6.35;3.88;;;20.20;79.00;;;;;;4946324;28;20117;-76
2021/09/13 08:44:15;;;;;;;5.78;3.80;;;20.40;78.30;;;;;;4933918;28;20031;-76
2021/09/13 08:46:51;;;;;;;5.20;3.78;;;20.40;78.30;;;;;;4940038;28;20031;-75
2021/09/13 08:49:36;;;;;;;5.75;3.90;;;20.50;78.40;;;;;;4938068;28;20047;-78
2021/09/13 08:52:04;;;;;;;5.35;3.08;;;20.40;77.20;;;;;;4949139;28;20039;-79
2021/09/13 08:54:32;;;;;;;3.40;3.00;;;20.40;77.80;;;;;;4944591;28;20034;-78
2021/09/13 08:57:02;;;;;;;5.07;3.08;;;20.40;77.60;;;;;;4946596;28;20035;-77
2021/09/13 08:59:29;;;;;;;7.55;2.95;;;20.50;77.30;;;;;;4941285;28;20043;-74
2021/09/13 09:01:55;;;;;;;7.70;3.08;;;20.60;76.40;;;;;;4930354;29;20058;-75
2021/09/13 09:04:21;;;;;;;3.78;2.75;;;20.60;76.80;;;;;;4940946;28;20041;-76
2021/09/13 09:06:48;;;;;;;5.78;2.85;;;20.70;77.00;;;;;;4937288;28;20122;-75
2021/09/13 09:09:22;;;;;;;6.45;2.50;;;20.70;76.40;;;;;;4936083;28;20967;-79
2021/09/13 09:12:01;;;;;;;6.10;3.03;;;20.70;77.10;;;;;;4935200;29;20062;-74
2021/09/13 09:14:59;;;;;;;4.65;3.05;;;20.90;77.50;;;;;;4938170;28;20043;-80
2021/09/13 09:17:26;;;;;;;3.40;2.38;;;21.00;76.70;;;;;;4956540;28;20039;-74
2021/09/13 09:20:06;;;;;;;5.05;2.65;;;21.00;75.90;;;;;;4931167;28;20111;-77
2021/09/13 09:22:37;;;;;;;5.85;3.00;;;21.00;76.00;;;;;;4938973;28;20582;-77
2021/09/13 09:25:05;;;;;;;4.97;2.92;;;21.00;75.70;;;;;;4931596;29;20134;-79
2021/09/13 09:27:32;;;;;;;4.13;2.80;;;21.00;76.40;;;;;;4953462;28;20039;-79
2021/09/13 09:30:13;;;;;;;2.28;1.98;;;21.10;76.00;;;;;;4933065;29;20074;-79
2021/09/13 09:32:41;;;;;;;4.40;2.10;;;21.20;75.10;;;;;;4938705;28;20042;-79
2021/09/13 09:35:16;;;;;;;3.05;2.13;;;21.30;73.50;;;;;;4929685;28;20563;-73
2021/09/13 09:37:42;;;;;;;2.75;1.95;;;21.30;74.20;;;;;;4932325;29;20039;-79
2021/09/13 09:40:09;;;;;;;4.47;2.10;;;21.30;74.50;;;;;;4931783;28;20035;-78
2021/09/13 09:42:37;;;;;;;3.25;2.20;;;21.50;74.30;;;;;;4931860;29;20036;-80
2021/09/13 09:45:06;;;;;;;10.63;2.38;;;21.70;73.80;;;;;;4947235;28;20753;-80
2021/09/13 09:47:32;;;;;;;3.50;2.33;;;21.80;71.60;;;;;;4951069;28;20058;-80
2021/09/13 09:50:00;;;;;;;3.95;2.05;;;21.80;71.90;;;;;;4939625;28;20126;-80
2021/09/13 09:52:37;;;;;;;5.18;2.10;;;21.70;72.40;;;;;;4946532;28;20451;-77
2021/09/13 09:55:18;;;;;;;3.00;1.80;;;21.80;73.20;;;;;;4942329;28;20968;-79
2021/09/13 09:58:02;;;;;;;2.33;1.70;;;21.80;73.80;;;;;;4932277;29;20515;-78
2021/09/13 10:00:28;;;;;;;2.88;1.70;;;22.00;72.20;;;;;;4928200;28;20054;-79
2021/09/13 10:02:56;;;;;;;2.67;1.55;;;22.20;70.20;;;;;;4934570;28;20046;-79
2021/09/13 10:05:23;;;;;;;3.90;1.80;;;22.10;70.70;;;;;;4928786;28;20046;-79
2021/09/13 10:07:50;;;;;;;4.53;2.28;;;22.00;70.80;;;;;;4941791;28;20043;-78
2021/09/13 10:10:18;;;;;;;3.88;1.92;;;22.00;70.30;;;;;;4956502;28;20031;-79
2021/09/13 10:12:45;;;;;;;3.45;2.03;;;21.90;71.50;;;;;;4944121;28;20035;-79
2021/09/13 10:15:12;;;;;;;2.83;1.80;;;21.80;71.50;;;;;;4934237;29;20040;-79
2021/09/13 10:17:38;;;;;;;4.85;2.78;;;21.70;72.50;;;;;;4932981;29;20035;-77
2021/09/13 10:20:05;;;;;;;3.22;2.13;;;21.80;72.10;;;;;;4949584;28;20110;-81
2021/09/13 10:22:36;;;;;;;3.33;1.45;;;21.90;71.60;;;;;;4931272;28;20035;-82
2021/09/13 10:25:04;;;;;;;3.45;1.92;;;22.00;70.70;;;;;;4939768;28;20094;-82
2021/09/13 10:27:41;;;;;;;4.68;1.95;;;22.10;70.90;;;;;;4940769;28;20043;-78
2021/09/13 10:30:17;;;;;;;2.67;2.00;;;22.30;70.10;;;;;;4941042;28;20046;-78
2021/09/13 10:32:45;;;;;;;3.47;1.45;;;22.30;69.40;;;;;;4936239;28;20039;-78
2021/09/13 10:35:13;;;;;;;3.00;1.70;;;22.30;69.90;;;;;;4937444;28;20035;-78
2021/09/13 10:37:44;;;;;;;2.08;1.70;;;22.40;69.60;;;;;;4936545;28;20035;-78
2021/09/13 10:40:16;;;;;;;4.13;1.98;;;22.40;70.40;;;;;;4935334;28;20050;-78
2021/09/13 10:42:47;;;;;;;3.17;1.85;;;22.40;69.40;;;;;;4937660;28;20050;-78
2021/09/13 10:45:50;;;;;;;4.22;1.98;;;22.40;69.10;;;;;;4931583;28;20145;-75
2021/09/13 10:48:20;;;;;;;3.47;2.50;;;22.40;69.20;;;;;;4948546;28;20041;-82
2021/09/13 10:50:49;;;;;;;4.68;1.73;;;22.40;69.90;;;;;;4937343;28;20122;-83
2021/09/13 10:53:18;;;;;;;2.47;1.58;;;22.40;69.90;;;;;;4948401;28;20031;-82
2021/09/13 10:55:46;;;;;;;3.35;1.58;;;22.40;70.00;;;;;;4929792;28;20870;-82
2021/09/13 10:58:14;;;;;;;3.22;1.58;;;22.40;70.30;;;;;;4941267;28;20713;-82
2021/09/13 11:00:42;;;;;;;5.57;1.73;;;22.40;69.80;;;;;;4937032;28;20363;-82
2021/09/13 11:08:43;;;;;;;2.67;2.00;;;22.10;70.80;;;;;;4932568;29;20043;-82
2021/09/13 11:11:14;;;;;;;4.18;1.90;;;22.10;71.20;;;;;;4940332;28;20038;-78
2021/09/13 11:13:41;;;;;;;4.10;2.15;;;22.00;72.40;;;;;;4943649;28;20036;-72
2021/09/13 11:16:07;;;;;;;3.13;1.95;;;22.00;72.20;;;;;;4928565;28;20114;-78
2021/09/13 11:18:35;;;;;;;5.35;2.00;;;22.00;72.20;;;;;;4929459;29;20044;-77
2021/09/13 11:21:24;;;;;;;6.32;3.70;;;21.90;72.20;;;;;;4926629;29;20094;-77
2021/09/13 11:23:53;;;;;;;3.40;2.30;;;22.00;73.10;;;;;;4948202;28;20999;-78
2021/09/13 11:26:32;;;;;;;3.20;2.33;;;22.00;72.70;;;;;;4929090;28;20027;-77
2021/09/13 11:29:07;;;;;;;3.90;2.03;;;22.00;72.40;;;;;;4930360;28;20030;-75
2021/09/13 11:31:38;;;;;;;4.60;2.47;;;22.10;70.90;;;;;;4943144;28;20031;-74
2021/09/13 11:34:15;;;;;;;4.50;2.28;;;22.10;70.60;;;;;;4934918;28;20027;-74
2021/09/13 11:37:02;;;;;;;3.17;2.20;;;22.10;72.30;;;;;;4933442;29;20583;-75
2021/09/13 11:39:32;;;;;;;;;;;22.10;71.90;;;;;;4938254;28;20039;-76
2021/09/13 11:42:03;;;;;;;4.30;2.25;;;22.20;71.50;;;;;;4931661;28;20013;-75
2021/09/13 11:44:36;;;;;;;6.35;2.55;;;22.20;72.20;;;;;;4925940;29;20032;-75
2021/09/13 11:47:05;;;;;;;3.33;2.03;;;22.20;71.60;;;;;;4929508;28;20054;-76
2021/09/13 11:49:35;;;;;;;3.35;1.80;;;22.20;71.00;;;;;;4935488;28;20636;-76
2021/09/13 11:52:12;;;;;;;5.82;2.17;;;22.30;69.60;;;;;;4933503;28;20070;-77
2021/09/13 11:54:41;;;;;;;2.63;1.90;;;22.30;69.10;;;;;;4931895;28;20048;-76
2021/09/13 11:57:26;;;;;;;3.25;2.20;;;22.30;70.00;;;;;;4943268;28;20031;-74
2021/09/13 11:59:54;;;;;;;2.35;1.95;;;22.30;70.00;;;;;;4946318;28;20362;-76
2021/09/13 12:02:20;;;;;;;4.15;2.17;;;22.30;70.20;;;;;;4935813;29;20039;-74
2021/09/13 12:04:46;;;;;;;3.15;1.98;;;22.40;69.40;;;;;;4937836;28;20079;-76
2021/09/13 12:07:12;;;;;;;3.60;2.10;;;22.30;69.10;;;;;;4936334;28;20106;-75
2021/09/13 12:09:43;;;;;;;6.95;2.92;;;22.40;69.20;;;;;;4947410;28;20070;-79
2021/09/13 12:12:20;;;;;;;6.13;3.30;;;22.40;68.80;;;;;;4929329;28;20031;-79
2021/09/13 12:14:46;;;;;;;5.25;2.92;;;22.40;68.90;;;;;;4923165;28;20039;-81
2021/09/13 12:17:14;;;;;;;7.60;2.70;;;22.50;69.90;;;;;;4958913;28;20039;-78
2021/09/13 12:20:10;;;;;;;3.05;2.50;;;22.50;69.50;;;;;;4941744;28;20046;-73
2021/09/13 12:22:35;;;;;;;3.75;2.58;;;22.60;69.30;;;;;;4953967;28;20058;-77
2021/09/13 12:25:14;;;;;;;3.35;2.45;;;22.50;69.40;;;;;;4942326;28;20043;-77
2021/09/13 12:27:45;;;;;;;3.95;2.40;;;22.60;69.70;;;;;;4945999;28;20023;-77
2021/09/13 12:30:21;;;;;;;6.57;3.25;;;22.60;68.60;;;;;;4936604;28;20035;-76
2021/09/13 12:32:57;;;;;;;5.60;2.60;;;22.50;68.40;;;;;;4934652;29;20050;-76
2021/09/13 12:35:43;;;;;;;;;;;22.30;69.30;;;;;;4938412;29;20069;-81
2021/09/13 12:38:15;;;;;;;2.70;2.20;;;22.20;68.90;;;;;;4936936;28;19922;-82
2021/09/13 12:40:58;;;;;;;3.70;2.30;;;22.10;69.50;;;;;;4931588;29;20042;-81
2021/09/13 12:43:29;;;;;;;2.42;2.22;;;22.10;70.10;;;;;;4933643;29;20582;-82
2021/09/13 12:46:05;;;;;;;3.10;2.20;;;22.00;70.40;;;;;;4923718;29;20040;-79
2021/09/13 12:48:32;;;;;;;2.88;1.88;;;22.00;70.40;;;;;;4942901;29;20837;-80
2021/09/13 12:50:58;;;;;;;3.03;2.10;;;22.00;71.40;;;;;;4937387;28;20760;-81
2021/09/13 12:53:29;;;;;;;3.50;1.70;;;22.10;69.90;;;;;;4927046;29;20023;-81
2021/09/13 12:55:57;;;;;;;2.22;1.98;;;22.10;68.80;;;;;;4930859;29;20043;-79
2021/09/13 12:58:32;;;;;;;3.20;2.20;;;22.10;69.60;;;;;;4932640;29;20042;-78
2021/09/13 13:01:01;;;;;;;4.85;1.95;;;22.10;70.80;;;;;;4935145;29;20063;-78
2021/09/13 13:03:28;;;;;;;3.88;2.30;;;22.10;69.90;;;;;;4960294;28;20039;-78